Phillipstown, Mississippi
Current Conditions -  °F | °C
As of 5:53 AM on Friday 19 Dec 2014 (Local Time) from KGWO Reporting Station
Overcast Overcast  
Wind Chill: 42°   Ceiling: 4000
Heat Index: 46°   Visibility: 10mi
Dew Point: 39°   Wind: 7mph
Humidity: 76%   Direction: 40°NE
Pressure: 30.18"   Gusts: NA
Location:  33.3926°N, 90.1584°W
Report Text: KGWO 191153Z AUTO 04006KT 10SM OVC040 08/04 A3018 RMK AO2 SLP220 70003 T00780039 10089 20078 55001
Loading
Personal Weather Stations






























Interactive Weather Map New forecast layout! Learn more

10-Day Weather Forecast

Advertisements
Track Severe Weather on mobile